Time;durP1;ratioP1;P1;durP2;ratioP2;P2;SDS_P1;SDS_P2;PMS_P1;PMS_P2;Temp;Humidity;BMP_temperature;BMP_pressure;BME280_temperature;BME280_humidity;BME280_pressure;Samples;Min_cycle;Max_cycle;Signal;HPM_P1;HPM_P2
2023/12/11 00:01:33;;;;;;;35.90;26.83;;;;;;;;;;5073892;28;20462;-61
2023/12/11 00:03:59;;;;;;;34.63;27.10;;;;;;;;;;5074068;28;20078;-61
2023/12/11 00:06:25;;;;;;;35.88;28.08;;;;;;;;;;5073973;28;20029;-61
2023/12/11 00:08:51;;;;;;;40.78;29.38;;;;;;;;;;5073826;28;20032;-61
2023/12/11 00:11:17;;;;;;;40.40;30.25;;;;;;;;;;5074132;28;20055;-61
2023/12/11 00:13:43;;;;;;;39.23;29.13;;;;;;;;;;5073800;28;20108;-61
2023/12/11 00:16:09;;;;;;;42.10;28.90;;;;;;;;;;5073450;28;20066;-61
2023/12/11 00:18:35;;;;;;;39.25;29.85;;;;;;;;;;5074059;28;20086;-61
2023/12/11 00:21:01;;;;;;;40.05;29.50;;;;;;;;;;5073673;28;20470;-61
2023/12/11 00:23:27;;;;;;;38.00;29.83;;;;;;;;;;5074940;28;20063;-60
2023/12/11 00:25:53;;;;;;;40.40;29.58;;;;;;;;;;5072309;28;20025;-60
2023/12/11 00:28:19;;;;;;;36.97;28.58;;;;;;;;;;5073522;28;20024;-61
2023/12/11 00:30:45;;;;;;;41.05;31.17;;;;;;;;;;5073471;28;20099;-61
2023/12/11 00:33:11;;;;;;;41.67;31.17;;;;;;;;;;5074083;28;20900;-61
2023/12/11 00:35:37;;;;;;;46.67;33.97;;;;;;;;;;5073979;28;20050;-61
2023/12/11 00:38:03;;;;;;;41.73;31.77;;;;;;;;;;5073556;28;20028;-60
2023/12/11 00:40:29;;;;;;;43.38;31.40;;;;;;;;;;5073661;28;20021;-61
2023/12/11 00:42:55;;;;;;;45.35;31.95;;;;;;;;;;5058223;28;20028;-60
2023/12/11 00:45:21;;;;;;;43.35;32.20;;;;;;;;;;5061350;28;20039;-61
2023/12/11 00:47:47;;;;;;;45.10;32.47;;;;;;;;;;5062748;28;20125;-61
2023/12/11 00:50:13;;;;;;;44.20;32.28;;;;;;;;;;5057030;28;20088;-61
2023/12/11 00:52:39;;;;;;;45.65;34.55;;;;;;;;;;5069191;28;20041;-61
2023/12/11 00:55:05;;;;;;;43.03;32.40;;;;;;;;;;5056623;28;20123;-61
2023/12/11 00:57:31;;;;;;;43.50;31.92;;;;;;;;;;5057867;28;20484;-60
2023/12/11 00:59:57;;;;;;;45.38;33.35;;;;;;;;;;5071723;28;20025;-60
2023/12/11 01:02:23;;;;;;;45.25;33.55;;;;;;;;;;5071877;28;20040;-60
2023/12/11 01:04:49;;;;;;;44.58;32.60;;;;;;;;;;5073387;28;20493;-60
2023/12/11 01:07:15;;;;;;;48.65;33.22;;;;;;;;;;5073262;28;20056;-60
2023/12/11 01:09:41;;;;;;;46.85;34.03;;;;;;;;;;5073012;28;20120;-61
2023/12/11 01:12:08;;;;;;;49.73;35.07;;;;;;;;;;5072606;28;20462;-61
2023/12/11 01:14:34;;;;;;;48.42;33.95;;;;;;;;;;5072660;28;20074;-61
2023/12/11 01:17:00;;;;;;;49.07;35.07;;;;;;;;;;5072864;28;20028;-61
2023/12/11 01:19:26;;;;;;;47.00;34.40;;;;;;;;;;5071115;28;20082;-61
2023/12/11 01:21:52;;;;;;;47.92;34.78;;;;;;;;;;5074205;28;20462;-60
2023/12/11 01:24:17;;;;;;;50.03;34.83;;;;;;;;;;5072779;28;20028;-60
2023/12/11 01:26:43;;;;;;;47.40;34.40;;;;;;;;;;5072318;28;20025;-61
2023/12/11 01:29:09;;;;;;;49.17;35.10;;;;;;;;;;5072530;28;20103;-60
2023/12/11 01:31:36;;;;;;;48.97;35.25;;;;;;;;;;5072306;28;20397;-60
2023/12/11 01:34:02;;;;;;;54.30;37.00;;;;;;;;;;5072598;28;20032;-60
2023/12/11 01:36:28;;;;;;;52.95;37.45;;;;;;;;;;5072217;28;20081;-60
2023/12/11 01:38:54;;;;;;;48.03;35.40;;;;;;;;;;5073120;28;20028;-59
2023/12/11 01:41:20;;;;;;;53.70;36.80;;;;;;;;;;5072174;28;20454;-59
2023/12/11 01:43:56;;;;;;;51.70;36.25;;;;;;;;;;5072502;28;20021;-59
2023/12/11 01:46:23;;;;;;;50.53;36.15;;;;;;;;;;5072186;28;20458;-59
2023/12/11 01:48:49;;;;;;;52.50;36.33;;;;;;;;;;5065883;28;20020;-60
2023/12/11 01:51:17;;;;;;;52.00;35.05;;;;;;;;;;5064163;28;20381;-59
2023/12/11 01:53:44;;;;;;;53.28;38.05;;;;;;;;;;5066972;28;20187;-60
2023/12/11 01:56:10;;;;;;;52.05;37.03;;;;;;;;;;5072611;28;20025;-60
2023/12/11 01:58:37;;;;;;;52.63;37.65;;;;;;;;;;5070382;28;20115;-60
2023/12/11 02:01:03;;;;;;;54.97;37.57;;;;;;;;;;5070291;28;20020;-59
2023/12/11 02:03:29;;;;;;;52.35;38.03;;;;;;;;;;5072172;28;20028;-59
2023/12/11 02:05:55;;;;;;;51.45;36.80;;;;;;;;;;5072048;28;20498;-60
2023/12/11 02:08:21;;;;;;;54.00;37.78;;;;;;;;;;5071877;28;20060;-60
2023/12/11 02:10:47;;;;;;;56.80;38.20;;;;;;;;;;5071944;28;20028;-60
2023/12/11 02:13:14;;;;;;;54.30;37.77;;;;;;;;;;5072352;28;20048;-60
2023/12/11 02:15:44;;;;;;;52.93;37.97;;;;;;;;;;5071927;28;20020;-59
2023/12/11 02:18:11;;;;;;;53.35;37.03;;;;;;;;;;5071895;28;20025;-60
2023/12/11 02:20:40;;;;;;;57.95;38.63;;;;;;;;;;5071647;28;20025;-59
2023/12/11 02:23:22;;;;;;;58.65;38.42;;;;;;;;;;5071927;28;20105;-60
2023/12/11 02:25:55;;;;;;;60.47;39.93;;;;;;;;;;5060510;28;20063;-59
2023/12/11 02:28:21;;;;;;;56.57;39.80;;;;;;;;;;5068423;28;20028;-59
2023/12/11 02:30:51;;;;;;;57.80;40.10;;;;;;;;;;5059239;28;20028;-60
2023/12/11 02:33:17;;;;;;;54.33;37.35;;;;;;;;;;5070040;28;20386;-59
2023/12/11 02:35:43;;;;;;;60.13;40.40;;;;;;;;;;5070934;28;20032;-59
2023/12/11 02:38:10;;;;;;;63.78;40.85;;;;;;;;;;5057973;28;20025;-60
2023/12/11 02:40:36;;;;;;;58.37;40.53;;;;;;;;;;5060582;28;20324;-60
2023/12/11 02:43:02;;;;;;;59.47;41.42;;;;;;;;;;5075018;28;20360;-60
2023/12/11 02:45:28;;;;;;;62.10;39.03;;;;;;;;;;5075289;28;20151;-60
2023/12/11 02:48:02;;;;;;;60.65;40.42;;;;;;;;;;5074712;28;20362;-60
2023/12/11 02:50:28;;;;;;;59.20;39.80;;;;;;;;;;5074546;28;20045;-60
2023/12/11 02:52:54;;;;;;;63.73;41.57;;;;;;;;;;5074768;28;20036;-62
2023/12/11 02:55:20;;;;;;;61.03;41.55;;;;;;;;;;5075243;28;20024;-60
2023/12/11 02:57:46;;;;;;;60.67;40.17;;;;;;;;;;5075138;28;20028;-60
2023/12/11 03:00:12;;;;;;;60.10;40.37;;;;;;;;;;5073869;28;20024;-60
2023/12/11 03:02:38;;;;;;;61.53;41.30;;;;;;;;;;5075758;28;20028;-60
2023/12/11 03:05:04;;;;;;;62.22;40.83;;;;;;;;;;5075272;28;20892;-60
2023/12/11 03:07:30;;;;;;;64.70;43.37;;;;;;;;;;5074999;28;20029;-60
2023/12/11 03:09:56;;;;;;;66.93;43.22;;;;;;;;;;5075250;28;20112;-60
2023/12/11 03:12:22;;;;;;;65.70;43.77;;;;;;;;;;5074960;28;20043;-61
2023/12/11 03:14:48;;;;;;;70.35;43.53;;;;;;;;;;5075222;28;20028;-60
2023/12/11 03:17:14;;;;;;;61.10;42.33;;;;;;;;;;5074919;28;20485;-60
2023/12/11 03:19:40;;;;;;;66.75;42.25;;;;;;;;;;5056067;28;20024;-60
2023/12/11 03:22:06;;;;;;;65.03;42.53;;;;;;;;;;5067585;28;20070;-60
2023/12/11 03:24:32;;;;;;;71.47;45.30;;;;;;;;;;5074148;28;20024;-60
2023/12/11 03:26:58;;;;;;;68.60;44.42;;;;;;;;;;5068287;28;20107;-60
2023/12/11 03:29:36;;;;;;;62.42;41.95;;;;;;;;;;5071483;28;20490;-60
2023/12/11 03:32:02;;;;;;;63.03;43.25;;;;;;;;;;5068744;28;20032;-60
2023/12/11 03:34:28;;;;;;;66.65;42.95;;;;;;;;;;5074625;28;20489;-60
2023/12/11 03:36:54;;;;;;;69.57;43.38;;;;;;;;;;5075198;28;20474;-60
2023/12/11 03:39:20;;;;;;;63.72;44.38;;;;;;;;;;5073912;28;20040;-60
2023/12/11 03:41:48;;;;;;;68.70;43.50;;;;;;;;;;5061343;28;20052;-60
2023/12/11 03:44:14;;;;;;;66.18;43.00;;;;;;;;;;5074418;28;20460;-60
2023/12/11 03:46:40;;;;;;;73.50;45.70;;;;;;;;;;5069650;28;20116;-60
2023/12/11 03:49:06;;;;;;;71.13;46.22;;;;;;;;;;5054358;28;20052;-60
2023/12/11 03:51:32;;;;;;;64.55;45.00;;;;;;;;;;5068869;28;20099;-60
2023/12/11 03:54:00;;;;;;;68.22;43.92;;;;;;;;;;5076418;28;20028;-60
2023/12/11 03:56:26;;;;;;;68.10;45.00;;;;;;;;;;5077078;28;20017;-61
2023/12/11 03:58:52;;;;;;;63.15;43.60;;;;;;;;;;5074340;28;20074;-60
2023/12/11 04:01:18;;;;;;;64.28;44.15;;;;;;;;;;5074433;28;20029;-61
2023/12/11 04:03:44;;;;;;;64.33;43.20;;;;;;;;;;5066351;28;20363;-60
2023/12/11 04:06:10;;;;;;;65.45;44.10;;;;;;;;;;5074101;28;20035;-60
2023/12/11 04:08:42;;;;;;;65.60;44.72;;;;;;;;;;5074062;28;20028;-60
2023/12/11 04:11:09;;;;;;;68.13;45.00;;;;;;;;;;5073067;28;20055;-60
2023/12/11 04:13:35;;;;;;;65.82;43.45;;;;;;;;;;5067128;28;20466;-59
2023/12/11 04:16:03;;;;;;;66.88;43.40;;;;;;;;;;5070454;28;20017;-60
2023/12/11 04:18:29;;;;;;;68.70;42.92;;;;;;;;;;5069001;28;20087;-59
2023/12/11 04:20:55;;;;;;;70.10;45.88;;;;;;;;;;5071747;28;20032;-59
2023/12/11 04:23:21;;;;;;;63.75;44.28;;;;;;;;;;5068965;28;20020;-60
2023/12/11 04:25:47;;;;;;;62.85;42.45;;;;;;;;;;5073505;28;20405;-60
2023/12/11 04:28:13;;;;;;;65.43;44.10;;;;;;;;;;5074409;28;20117;-60
2023/12/11 04:30:39;;;;;;;70.38;44.22;;;;;;;;;;5067971;28;20100;-60
2023/12/11 04:33:05;;;;;;;66.17;44.17;;;;;;;;;;5073753;28;20029;-60
2023/12/11 04:35:31;;;;;;;68.18;45.67;;;;;;;;;;5073522;28;20043;-60
2023/12/11 04:37:57;;;;;;;65.40;45.53;;;;;;;;;;5073544;28;20111;-60
2023/12/11 04:40:23;;;;;;;65.20;44.55;;;;;;;;;;5073277;28;20412;-60
2023/12/11 04:42:49;;;;;;;67.95;46.85;;;;;;;;;;5073718;28;20029;-60
2023/12/11 04:45:15;;;;;;;65.70;44.92;;;;;;;;;;5073887;28;20359;-60
2023/12/11 04:47:41;;;;;;;63.92;43.38;;;;;;;;;;5074220;28;20020;-59
2023/12/11 04:50:07;;;;;;;66.53;44.45;;;;;;;;;;5073158;28;20589;-59
2023/12/11 04:52:58;;;;;;;66.10;45.63;;;;;;;;;;5073190;28;20473;-59
2023/12/11 04:55:24;;;;;;;67.68;45.42;;;;;;;;;;5073089;28;20035;-60
2023/12/11 04:57:50;;;;;;;65.65;45.30;;;;;;;;;;5073041;28;20103;-60
2023/12/11 05:00:17;;;;;;;63.38;44.67;;;;;;;;;;5073088;28;20469;-59
2023/12/11 05:02:43;;;;;;;63.55;43.88;;;;;;;;;;5068639;28;20089;-59
2023/12/11 05:05:10;;;;;;;69.15;45.65;;;;;;;;;;5064078;28;20430;-60
2023/12/11 05:07:36;;;;;;;68.68;45.95;;;;;;;;;;5072909;28;20058;-60
2023/12/11 05:10:02;;;;;;;70.07;45.47;;;;;;;;;;5073173;28;20127;-60
2023/12/11 05:12:28;;;;;;;70.18;46.90;;;;;;;;;;5072959;28;20509;-60
2023/12/11 05:14:54;;;;;;;71.80;46.78;;;;;;;;;;5054976;28;20066;-60
2023/12/11 05:17:20;;;;;;;67.60;45.20;;;;;;;;;;5072787;28;20071;-60
2023/12/11 05:19:46;;;;;;;65.90;44.38;;;;;;;;;;5073655;28;20020;-60
2023/12/11 05:22:13;;;;;;;66.30;45.45;;;;;;;;;;5069159;28;20036;-60
2023/12/11 05:24:38;;;;;;;63.00;44.45;;;;;;;;;;5065293;28;20027;-60
2023/12/11 05:27:05;;;;;;;64.60;44.13;;;;;;;;;;5067313;28;20093;-60
2023/12/11 05:29:31;;;;;;;68.35;46.38;;;;;;;;;;5066636;28;20037;-60
2023/12/11 05:31:57;;;;;;;65.80;42.65;;;;;;;;;;5057940;28;20055;-60
2023/12/11 05:34:23;;;;;;;61.80;44.30;;;;;;;;;;5080817;28;20382;-60
2023/12/11 05:36:49;;;;;;;66.78;45.22;;;;;;;;;;5066313;28;20478;-60
2023/12/11 05:39:15;;;;;;;72.25;48.83;;;;;;;;;;5070992;28;20030;-60
2023/12/11 05:41:41;;;;;;;66.05;45.88;;;;;;;;;;5072179;28;20024;-60
2023/12/11 05:44:07;;;;;;;68.20;46.83;;;;;;;;;;5072509;28;20024;-60
2023/12/11 05:46:33;;;;;;;68.35;46.08;;;;;;;;;;5070891;28;20398;-60
2023/12/11 05:48:59;;;;;;;68.80;44.97;;;;;;;;;;5070269;28;20084;-60
2023/12/11 05:51:27;;;;;;;68.68;46.40;;;;;;;;;;5064853;28;20028;-60
2023/12/11 05:53:55;;;;;;;64.50;44.47;;;;;;;;;;5072690;28;20029;-60
2023/12/11 05:56:21;;;;;;;70.00;47.57;;;;;;;;;;5066462;28;20123;-60
2023/12/11 05:58:47;;;;;;;68.35;45.67;;;;;;;;;;5071914;28;20103;-60
2023/12/11 06:01:13;;;;;;;67.47;45.72;;;;;;;;;;5071852;28;20037;-60
2023/12/11 06:03:39;;;;;;;70.43;46.45;;;;;;;;;;5058217;28;20025;-60
2023/12/11 06:06:05;;;;;;;73.50;48.43;;;;;;;;;;5071956;28;20020;-60
2023/12/11 06:08:31;;;;;;;73.85;47.38;;;;;;;;;;5072259;28;20021;-60
2023/12/11 06:10:58;;;;;;;63.38;44.78;;;;;;;;;;5067117;28;20451;-60
2023/12/11 06:13:24;;;;;;;66.65;46.22;;;;;;;;;;5070955;28;20039;-60
2023/12/11 06:15:50;;;;;;;68.07;47.00;;;;;;;;;;5071792;28;20033;-60
2023/12/11 06:18:16;;;;;;;70.33;47.23;;;;;;;;;;5070679;28;20024;-61
2023/12/11 06:20:42;;;;;;;69.25;46.00;;;;;;;;;;5071922;28;20020;-60
2023/12/11 06:23:08;;;;;;;65.38;44.28;;;;;;;;;;5071881;28;20082;-60
2023/12/11 06:25:34;;;;;;;67.93;45.85;;;;;;;;;;5071729;28;20027;-60
2023/12/11 06:28:00;;;;;;;71.15;47.88;;;;;;;;;;5071975;28;20028;-60
2023/12/11 06:30:26;;;;;;;72.13;48.05;;;;;;;;;;5070393;28;20327;-60
2023/12/11 06:32:52;;;;;;;62.78;44.53;;;;;;;;;;5064224;28;20040;-60
2023/12/11 06:35:18;;;;;;;70.35;48.90;;;;;;;;;;5064186;28;20028;-60
2023/12/11 06:37:44;;;;;;;73.93;47.50;;;;;;;;;;5063109;28;20394;-60
2023/12/11 06:40:10;;;;;;;75.45;48.53;;;;;;;;;;5071395;28;20085;-60
2023/12/11 06:42:37;;;;;;;75.28;48.35;;;;;;;;;;5068787;28;20037;-60
2023/12/11 06:45:05;;;;;;;69.95;47.08;;;;;;;;;;5058181;28;20025;-60
2023/12/11 06:47:31;;;;;;;70.65;46.45;;;;;;;;;;5064959;28;20068;-60
2023/12/11 06:49:57;;;;;;;69.65;46.72;;;;;;;;;;5057598;28;20064;-60
2023/12/11 06:52:23;;;;;;;68.23;47.37;;;;;;;;;;5055823;28;20352;-60
2023/12/11 06:54:49;;;;;;;66.60;46.47;;;;;;;;;;5055273;28;20029;-60
2023/12/11 06:57:15;;;;;;;68.75;47.72;;;;;;;;;;5062014;28;20373;-60
2023/12/11 06:59:41;;;;;;;71.03;49.83;;;;;;;;;;5064494;28;20055;-60
2023/12/11 07:02:07;;;;;;;67.88;45.90;;;;;;;;;;5058626;28;20061;-60
2023/12/11 07:04:33;;;;;;;65.28;46.92;;;;;;;;;;5064293;28;20516;-60
2023/12/11 07:06:59;;;;;;;66.53;46.75;;;;;;;;;;5061973;28;20033;-60
2023/12/11 07:09:26;;;;;;;70.53;46.95;;;;;;;;;;5064628;28;20021;-60
2023/12/11 07:11:52;;;;;;;68.60;45.28;;;;;;;;;;5066434;28;20037;-60
2023/12/11 07:14:19;;;;;;;67.63;45.85;;;;;;;;;;5068853;28;20017;-60
2023/12/11 07:16:45;;;;;;;69.50;45.65;;;;;;;;;;5060410;28;20033;-60
2023/12/11 07:19:11;;;;;;;67.78;45.33;;;;;;;;;;5057163;28;20466;-60
2023/12/11 07:21:37;;;;;;;67.13;46.35;;;;;;;;;;5057864;28;20047;-60
2023/12/11 07:24:03;;;;;;;68.15;45.28;;;;;;;;;;5065598;28;20037;-60
2023/12/11 07:26:29;;;;;;;65.90;44.55;;;;;;;;;;5069734;28;20122;-60
2023/12/11 07:28:55;;;;;;;62.17;43.78;;;;;;;;;;5065640;28;20046;-60
2023/12/11 07:31:21;;;;;;;65.00;43.92;;;;;;;;;;5073072;28;20032;-60
2023/12/11 07:33:47;;;;;;;68.45;45.33;;;;;;;;;;5059543;28;20095;-60
2023/12/11 07:36:13;;;;;;;61.10;44.05;;;;;;;;;;5068298;28;20025;-60
2023/12/11 07:38:39;;;;;;;66.57;44.83;;;;;;;;;;5066514;28;20107;-62
2023/12/11 07:41:05;;;;;;;68.75;44.35;;;;;;;;;;5074230;28;20013;-60
2023/12/11 07:43:31;;;;;;;71.68;46.05;;;;;;;;;;5074450;28;20505;-60
2023/12/11 07:45:57;;;;;;;67.72;45.83;;;;;;;;;;5074574;28;20021;-60
2023/12/11 07:48:23;;;;;;;73.78;46.25;;;;;;;;;;5074431;28;20029;-60
2023/12/11 07:50:49;;;;;;;70.47;47.08;;;;;;;;;;5073902;28;20147;-60
2023/12/11 07:53:15;;;;;;;66.18;45.40;;;;;;;;;;5059786;28;20039;-60
2023/12/11 07:55:42;;;;;;;69.43;46.63;;;;;;;;;;5074567;28;20079;-60
2023/12/11 07:58:08;;;;;;;63.95;43.70;;;;;;;;;;5074044;28;20052;-60
2023/12/11 08:00:34;;;;;;;66.07;45.33;;;;;;;;;;5074178;28;20039;-60
2023/12/11 08:03:00;;;;;;;67.00;44.33;;;;;;;;;;5074363;28;20048;-60
2023/12/11 08:05:26;;;;;;;71.75;47.03;;;;;;;;;;5068484;28;20087;-60
2023/12/11 08:07:52;;;;;;;66.22;45.08;;;;;;;;;;5068601;28;20020;-60
2023/12/11 08:10:19;;;;;;;68.00;46.55;;;;;;;;;;5062441;28;20508;-60
2023/12/11 08:12:49;;;;;;;68.00;45.40;;;;;;;;;;5062752;28;20067;-64
2023/12/11 08:15:15;;;;;;;67.63;46.30;;;;;;;;;;5064775;28;20404;-67
2023/12/11 08:17:41;;;;;;;73.50;47.50;;;;;;;;;;5052512;28;20450;-64
2023/12/11 08:20:09;;;;;;;67.57;44.72;;;;;;;;;;5067854;28;20111;-60
2023/12/11 08:22:35;;;;;;;76.43;47.35;;;;;;;;;;5054807;28;20112;-60
2023/12/11 08:25:01;;;;;;;72.65;47.30;;;;;;;;;;5061350;28;20028;-59
2023/12/11 08:27:43;;;;;;;74.88;48.15;;;;;;;;;;5059978;28;20025;-59
2023/12/11 08:30:09;;;;;;;70.47;45.85;;;;;;;;;;5061333;28;20417;-62
2023/12/11 08:32:37;;;;;;;74.28;48.65;;;;;;;;;;5064888;28;20032;-67
2023/12/11 08:35:03;;;;;;;72.13;47.13;;;;;;;;;;5071945;28;20029;-69
2023/12/11 08:37:29;;;;;;;72.93;48.17;;;;;;;;;;5065584;28;20032;-65
2023/12/11 08:39:55;;;;;;;76.45;49.15;;;;;;;;;;5060465;28;20020;-66
2023/12/11 08:42:21;;;;;;;74.70;48.50;;;;;;;;;;5064968;28;20047;-65
2023/12/11 08:44:47;;;;;;;75.47;48.88;;;;;;;;;;5067027;28;20475;-69
2023/12/11 08:47:13;;;;;;;73.03;48.83;;;;;;;;;;5054767;28;20033;-61
2023/12/11 08:49:39;;;;;;;79.95;50.25;;;;;;;;;;5065574;28;20044;-61
2023/12/11 08:52:05;;;;;;;83.15;51.38;;;;;;;;;;5063728;28;20103;-67
2023/12/11 08:54:31;;;;;;;81.28;50.83;;;;;;;;;;5058098;28;20036;-69
2023/12/11 08:56:57;;;;;;;80.72;50.83;;;;;;;;;;5061362;28;20017;-66
2023/12/11 08:59:23;;;;;;;79.50;49.67;;;;;;;;;;5058311;28;20036;-66
2023/12/11 09:01:49;;;;;;;85.70;52.22;;;;;;;;;;5070295;28;20144;-64
2023/12/11 09:04:15;;;;;;;81.40;49.10;;;;;;;;;;5063657;28;20112;-64
2023/12/11 09:06:42;;;;;;;85.88;52.70;;;;;;;;;;5068805;28;20030;-63
2023/12/11 09:09:08;;;;;;;78.57;49.47;;;;;;;;;;5062115;28;20416;-63
2023/12/11 09:11:34;;;;;;;76.32;48.60;;;;;;;;;;5065626;28;20100;-64
2023/12/11 09:14:00;;;;;;;88.97;52.90;;;;;;;;;;5062306;28;20055;-61
2023/12/11 09:16:26;;;;;;;83.85;50.53;;;;;;;;;;5057384;28;20036;-60
2023/12/11 09:18:52;;;;;;;86.97;51.83;;;;;;;;;;5067332;28;20031;-60
2023/12/11 09:21:22;;;;;;;80.03;50.13;;;;;;;;;;5057962;28;20100;-60
2023/12/11 09:23:48;;;;;;;86.95;51.72;;;;;;;;;;5056688;28;20029;-61
2023/12/11 09:26:14;;;;;;;84.28;51.28;;;;;;;;;;5065837;28;20094;-59
2023/12/11 09:28:40;;;;;;;86.30;51.70;;;;;;;;;;5060471;28;20470;-60
2023/12/11 09:31:06;;;;;;;83.85;51.30;;;;;;;;;;5061255;28;20049;-60
2023/12/11 09:33:32;;;;;;;85.28;50.47;;;;;;;;;;5068477;28;20477;-61
2023/12/11 09:35:59;;;;;;;79.45;48.55;;;;;;;;;;5072714;28;20032;-64
2023/12/11 09:38:25;;;;;;;76.57;49.50;;;;;;;;;;5061894;28;20127;-63
2023/12/11 09:40:51;;;;;;;74.55;47.28;;;;;;;;;;5066909;28;20020;-60
2023/12/11 09:43:19;;;;;;;76.18;45.38;;;;;;;;;;5070598;28;20028;-62
2023/12/11 09:45:47;;;;;;;70.15;45.80;;;;;;;;;;5061049;28;20025;-63
2023/12/11 09:48:13;;;;;;;72.55;45.28;;;;;;;;;;5064162;28;20033;-67
2023/12/11 09:50:39;;;;;;;74.45;45.78;;;;;;;;;;5058511;28;20124;-59
2023/12/11 09:53:05;;;;;;;78.60;47.30;;;;;;;;;;5061192;28;20385;-62
2023/12/11 09:55:31;;;;;;;82.50;48.80;;;;;;;;;;5057338;28;20063;-64
2023/12/11 09:57:57;;;;;;;71.47;45.20;;;;;;;;;;5066762;28;20059;-67
2023/12/11 10:00:23;;;;;;;73.20;45.65;;;;;;;;;;5063804;28;20547;-59
2023/12/11 10:02:51;;;;;;;71.50;45.00;;;;;;;;;;5059035;28;20037;-60
2023/12/11 10:05:23;;;;;;;79.63;48.33;;;;;;;;;;5061015;28;20351;-61
2023/12/11 10:07:49;;;;;;;77.53;48.10;;;;;;;;;;5065710;28;20154;-61
2023/12/11 10:10:22;;;;;;;81.35;47.75;;;;;;;;;;5059072;28;20112;-61
2023/12/11 10:12:48;;;;;;;81.40;47.05;;;;;;;;;;5064528;28;20037;-68
2023/12/11 10:15:33;;;;;;;77.80;47.17;;;;;;;;;;5058204;28;20509;-65
2023/12/11 10:18:00;;;;;;;77.03;47.42;;;;;;;;;;5071919;28;20041;-65
2023/12/11 10:20:26;;;;;;;76.13;48.70;;;;;;;;;;5059049;28;20048;-68
2023/12/11 10:22:52;;;;;;;77.22;48.13;;;;;;;;;;5069332;28;20031;-64
2023/12/11 10:25:28;;;;;;;77.68;46.85;;;;;;;;;;5068163;28;20377;-61
2023/12/11 10:28:08;;;;;;;78.93;47.67;;;;;;;;;;5061082;28;20157;-60
2023/12/11 10:30:49;;;;;;;79.63;46.20;;;;;;;;;;5063498;28;20116;-63
2023/12/11 10:33:15;;;;;;;74.05;46.90;;;;;;;;;;5054892;28;20093;-61
2023/12/11 10:35:41;;;;;;;76.85;46.80;;;;;;;;;;5065073;28;20021;-65
2023/12/11 10:38:07;;;;;;;75.18;46.08;;;;;;;;;;5061850;28;20040;-64
2023/12/11 10:40:40;;;;;;;73.05;44.67;;;;;;;;;;5062341;28;20043;-60
2023/12/11 10:43:06;;;;;;;72.75;44.67;;;;;;;;;;5068931;28;20020;-60
2023/12/11 10:45:33;;;;;;;75.55;45.47;;;;;;;;;;5058580;28;20382;-61
2023/12/11 10:48:00;;;;;;;74.40;45.47;;;;;;;;;;5062938;28;20112;-65
2023/12/11 10:50:26;;;;;;;79.25;48.00;;;;;;;;;;5062085;28;20124;-61
2023/12/11 10:52:52;;;;;;;80.53;46.45;;;;;;;;;;5065690;28;20040;-59
2023/12/11 10:55:19;;;;;;;79.88;46.58;;;;;;;;;;5061569;28;20074;-59
2023/12/11 10:57:46;;;;;;;80.40;47.88;;;;;;;;;;5061065;28;20021;-64
2023/12/11 11:00:13;;;;;;;79.22;47.38;;;;;;;;;;5065155;28;20033;-64
2023/12/11 11:02:43;;;;;;;85.18;47.40;;;;;;;;;;5069106;28;20032;-64
2023/12/11 11:05:09;;;;;;;84.45;50.25;;;;;;;;;;5066017;28;20025;-64
2023/12/11 11:07:36;;;;;;;82.65;48.35;;;;;;;;;;5063065;28;20061;-65
2023/12/11 11:10:05;;;;;;;76.13;47.00;;;;;;;;;;5073815;28;20016;-59
2023/12/11 11:12:34;;;;;;;86.72;48.33;;;;;;;;;;5067050;28;20037;-61
2023/12/11 11:15:00;;;;;;;81.38;47.78;;;;;;;;;;5070760;28;20025;-61
2023/12/11 11:17:46;;;;;;;84.78;49.25;;;;;;;;;;5061135;28;20028;-61
2023/12/11 11:29:42;;;;;;;64.68;41.90;;;;;;;;;;5059160;28;20028;-53
2023/12/11 11:32:08;;;;;;;;;;;;;;;;;;5066405;28;20044;-54
2023/12/11 11:34:40;;;;;;;67.70;42.88;;;;;;;;;;5068732;28;19953;-55
2023/12/11 11:37:06;;;;;;;61.72;39.33;;;;;;;;;;5066063;28;20025;-56
2023/12/11 11:39:51;;;;;;;58.80;41.17;;;;;;;;;;5069073;28;20040;-54
2023/12/11 11:42:17;;;;;;;59.28;41.15;;;;;;;;;;5074596;28;20031;-55
2023/12/11 11:44:43;;;;;;;58.42;41.47;;;;;;;;;;5073417;28;20099;-56
2023/12/11 11:47:09;;;;;;;59.83;40.90;;;;;;;;;;5076961;28;20028;-51
2023/12/11 11:49:35;;;;;;;57.38;38.22;;;;;;;;;;5074508;28;20051;-55
2023/12/11 11:52:05;;;;;;;54.38;38.60;;;;;;;;;;5069084;28;20074;-55
2023/12/11 11:54:32;;;;;;;57.08;38.10;;;;;;;;;;5066561;28;20031;-55
2023/12/11 11:56:58;;;;;;;60.92;41.97;;;;;;;;;;5060754;28;20021;-55
2023/12/11 11:59:24;;;;;;;55.53;39.22;;;;;;;;;;5064439;28;20028;-57
2023/12/11 12:01:51;;;;;;;57.17;38.92;;;;;;;;;;5074172;28;20104;-56
2023/12/11 12:04:27;;;;;;;61.03;39.97;;;;;;;;;;5069518;28;20033;-55
2023/12/11 12:06:57;;;;;;;60.97;41.28;;;;;;;;;;5064729;28;20020;-57
2023/12/11 12:09:23;;;;;;;54.78;39.67;;;;;;;;;;5073353;28;20024;-57
2023/12/11 12:11:49;;;;;;;59.17;40.25;;;;;;;;;;5072844;28;20490;-52
2023/12/11 12:14:15;;;;;;;57.70;39.40;;;;;;;;;;5074110;28;20075;-52
2023/12/11 12:16:41;;;;;;;59.42;39.47;;;;;;;;;;5070956;28;20101;-55
2023/12/11 12:19:07;;;;;;;56.03;40.03;;;;;;;;;;5054117;28;20021;-55
2023/12/11 12:21:48;;;;;;;54.88;38.65;;;;;;;;;;5070196;28;20498;-57
2023/12/11 12:24:14;;;;;;;52.70;38.85;;;;;;;;;;5059397;28;20035;-53
2023/12/11 12:26:42;;;;;;;65.05;41.10;;;;;;;;;;5073601;28;20024;-55
2023/12/11 12:29:09;;;;;;;66.90;45.25;;;;;;;;;;5065018;28;20025;-55
2023/12/11 12:31:36;;;;;;;64.95;43.35;;;;;;;;;;5066707;28;20029;-56
2023/12/11 12:34:02;;;;;;;68.35;46.08;;;;;;;;;;5073921;28;20170;-56
2023/12/11 12:36:30;;;;;;;73.35;45.35;;;;;;;;;;5073772;28;20028;-53
2023/12/11 12:38:56;;;;;;;68.50;44.08;;;;;;;;;;5073401;28;20086;-55
2023/12/11 12:41:22;;;;;;;71.40;44.53;;;;;;;;;;5073725;28;20020;-54
2023/12/11 12:43:48;;;;;;;66.03;43.33;;;;;;;;;;5073258;28;20012;-57
2023/12/11 12:46:14;;;;;;;72.35;47.35;;;;;;;;;;5073440;28;20032;-56
2023/12/11 12:48:41;;;;;;;65.30;44.17;;;;;;;;;;5073001;28;20108;-57
2023/12/11 12:51:10;;;;;;;72.70;46.30;;;;;;;;;;5073367;28;20077;-55
2023/12/11 12:53:51;;;;;;;65.32;42.38;;;;;;;;;;5073537;28;20125;-56
2023/12/11 12:56:19;;;;;;;69.75;44.60;;;;;;;;;;5061263;28;20454;-56
2023/12/11 12:58:53;;;;;;;74.57;48.40;;;;;;;;;;5072963;28;20094;-57
2023/12/11 13:01:19;;;;;;;;;;;;;;;;;;5073576;28;20166;-57
2023/12/11 13:03:45;;;;;;;62.83;43.22;;;;;;;;;;5073062;28;19947;-57
2023/12/11 13:06:25;;;;;;;63.95;43.80;;;;;;;;;;5067493;28;20475;-57
2023/12/11 13:08:51;;;;;;;69.57;45.78;;;;;;;;;;5066265;28;20025;-58
2023/12/11 13:11:17;;;;;;;64.90;44.22;;;;;;;;;;5064884;28;20032;-58
2023/12/11 13:13:54;;;;;;;67.45;44.33;;;;;;;;;;5068025;28;20035;-57
2023/12/11 13:16:20;;;;;;;64.70;43.65;;;;;;;;;;5066898;28;20151;-58
2023/12/11 13:18:50;;;;;;;66.25;43.40;;;;;;;;;;5068686;28;20096;-57
2023/12/11 13:21:16;;;;;;;66.22;43.95;;;;;;;;;;5071847;28;20121;-57
2023/12/11 13:23:42;;;;;;;64.65;44.13;;;;;;;;;;5072273;28;20493;-57
2023/12/11 13:41:09;;;;;;;67.28;45.08;;;;;;;;;;5089308;27;20416;-64
2023/12/11 13:43:35;;;;;;;68.43;48.00;;;;;;;;;;5089530;28;20021;-67
2023/12/11 13:46:02;;;;;;;68.68;45.05;;;;;;;;;;5089022;28;20149;-65
2023/12/11 13:48:28;;;;;;;71.07;45.63;;;;;;;;;;5088923;28;20107;-63
2023/12/11 13:50:54;;;;;;;71.15;47.47;;;;;;;;;;5088782;28;20035;-62
2023/12/11 13:53:21;;;;;;;73.15;47.00;;;;;;;;;;5087597;28;20099;-62
2023/12/11 13:55:47;;;;;;;69.53;45.22;;;;;;;;;;5088888;28;20037;-60
2023/12/11 13:58:13;;;;;;;74.20;47.72;;;;;;;;;;5088741;28;20055;-61
2023/12/11 14:00:40;;;;;;;66.63;45.90;;;;;;;;;;5088811;28;20090;-63
2023/12/11 14:03:05;;;;;;;68.78;46.38;;;;;;;;;;5089303;28;20424;-58
2023/12/11 14:05:32;;;;;;;64.50;45.55;;;;;;;;;;5088515;28;20033;-57
2023/12/11 14:07:59;;;;;;;71.00;47.05;;;;;;;;;;5088494;28;20112;-60
2023/12/11 14:10:25;;;;;;;71.15;46.45;;;;;;;;;;5088253;28;20519;-56
2023/12/11 14:12:51;;;;;;;67.13;47.17;;;;;;;;;;5088303;28;20044;-61
2023/12/11 14:32:10;;;;;;;54.88;38.05;;;;;;;;;;5050444;28;20493;-62
2023/12/11 14:34:40;;;;;;;55.80;38.90;;;;;;;;;;5049224;28;20037;-55
2023/12/11 14:37:09;;;;;;;60.55;40.80;;;;;;;;;;5048599;28;20021;-61
2023/12/11 14:39:36;;;;;;;52.33;38.13;;;;;;;;;;5048648;28;20086;-61
2023/12/11 14:42:02;;;;;;;55.78;39.00;;;;;;;;;;5048505;28;20028;-64
2023/12/11 14:44:28;;;;;;;56.13;39.67;;;;;;;;;;5038927;28;20022;-60
2023/12/11 14:46:54;;;;;;;53.53;39.28;;;;;;;;;;5044580;28;20036;-59
2023/12/11 14:49:21;;;;;;;49.15;36.40;;;;;;;;;;5048523;28;20020;-60
2023/12/11 14:51:47;;;;;;;52.40;37.33;;;;;;;;;;5048053;28;20500;-61
2023/12/11 14:54:15;;;;;;;50.85;36.58;;;;;;;;;;5035389;28;20089;-70
2023/12/11 14:56:41;;;;;;;53.92;37.38;;;;;;;;;;5049185;28;20029;-54
2023/12/11 14:59:08;;;;;;;50.55;36.55;;;;;;;;;;5048215;28;20052;-56